Beaverlick, Kentucky
Current Conditions -  °F | °C
As of 4:52 AM on Thursday 29 Jan 2015 (Local Time) from KCVG Reporting Station
Overcast Overcast  
Wind Chill: 26°   Ceiling: 7000
Heat Index: 36°   Visibility: 10mi
Dew Point: 21°   Wind: 16mph
Humidity: 55%   Direction: 170°S
Pressure: 29.95"   Gusts: NA
Location:  38.8847°N, 84.6211°W
Report Text: KCVG 290952Z 17014KT 10SM OVC070 02/M06 A2995 RMK AO2 SLP145 T00221061 $
Loading
Personal Weather Stations






























Interactive Weather Map New forecast layout! Learn more

10-Day Weather Forecast

Advertisements
Track Severe Weather on mobile